sensor_id;sensor_type;location;lat;lon;timestamp;P1;durP1;ratioP1;P2;durP2;ratioP2
58954;SDS011;45815;52.334;5.024;2022-08-19T00:00:16;10.23;;;6.82;;
58954;SDS011;45815;52.334;5.024;2022-08-19T00:02:43;8.65;;;6.63;;
58954;SDS011;45815;52.334;5.024;2022-08-19T00:05:10;11.13;;;7.38;;
58954;SDS011;45815;52.334;5.024;2022-08-19T00:07:36;10.63;;;7.10;;
58954;SDS011;45815;52.334;5.024;2022-08-19T00:10:03;12.07;;;6.75;;
58954;SDS011;45815;52.334;5.024;2022-08-19T00:12:31;9.73;;;6.57;;
58954;SDS011;45815;52.334;5.024;2022-08-19T00:14:56;11.32;;;6.72;;
58954;SDS011;45815;52.334;5.024;2022-08-19T00:17:22;9.15;;;6.82;;
58954;SDS011;45815;52.334;5.024;2022-08-19T00:19:47;8.95;;;6.45;;
58954;SDS011;45815;52.334;5.024;2022-08-19T00:22:13;9.60;;;6.57;;
58954;SDS011;45815;52.334;5.024;2022-08-19T00:24:39;10.27;;;6.70;;
58954;SDS011;45815;52.334;5.024;2022-08-19T00:27:06;10.13;;;6.80;;
58954;SDS011;45815;52.334;5.024;2022-08-19T00:29:31;11.32;;;6.82;;
58954;SDS011;45815;52.334;5.024;2022-08-19T00:31:57;10.32;;;6.40;;
58954;SDS011;45815;52.334;5.024;2022-08-19T00:34:24;9.13;;;6.47;;
58954;SDS011;45815;52.334;5.024;2022-08-19T00:36:54;10.07;;;6.55;;
58954;SDS011;45815;52.334;5.024;2022-08-19T00:39:20;9.45;;;6.90;;
58954;SDS011;45815;52.334;5.024;2022-08-19T00:41:46;11.95;;;7.18;;
58954;SDS011;45815;52.334;5.024;2022-08-19T00:44:16;11.80;;;7.72;;
58954;SDS011;45815;52.334;5.024;2022-08-19T00:46:47;12.38;;;7.78;;
58954;SDS011;45815;52.334;5.024;2022-08-19T00:51:58;9.68;;;6.85;;
58954;SDS011;45815;52.334;5.024;2022-08-19T00:54:28;9.98;;;6.53;;
58954;SDS011;45815;52.334;5.024;2022-08-19T00:56:54;10.10;;;7.22;;
58954;SDS011;45815;52.334;5.024;2022-08-19T00:59:19;12.05;;;7.22;;
58954;SDS011;45815;52.334;5.024;2022-08-19T01:01:45;9.90;;;7.10;;
58954;SDS011;45815;52.334;5.024;2022-08-19T01:04:12;9.63;;;7.18;;
58954;SDS011;45815;52.334;5.024;2022-08-19T01:06:38;12.43;;;7.68;;
58954;SDS011;45815;52.334;5.024;2022-08-19T01:09:05;12.07;;;7.38;;
58954;SDS011;45815;52.334;5.024;2022-08-19T01:11:32;11.70;;;7.43;;
58954;SDS011;45815;52.334;5.024;2022-08-19T01:14:00;13.30;;;7.85;;
58954;SDS011;45815;52.334;5.024;2022-08-19T01:16:26;11.90;;;7.93;;
58954;SDS011;45815;52.334;5.024;2022-08-19T01:18:53;11.93;;;8.95;;
58954;SDS011;45815;52.334;5.024;2022-08-19T01:21:34;15.10;;;9.48;;
58954;SDS011;45815;52.334;5.024;2022-08-19T01:24:05;12.68;;;9.35;;
58954;SDS011;45815;52.334;5.024;2022-08-19T01:26:31;13.90;;;10.15;;
58954;SDS011;45815;52.334;5.024;2022-08-19T01:28:57;15.80;;;11.23;;
58954;SDS011;45815;52.334;5.024;2022-08-19T01:31:25;15.95;;;11.95;;
58954;SDS011;45815;52.334;5.024;2022-08-19T01:33:52;15.10;;;11.95;;
58954;SDS011;45815;52.334;5.024;2022-08-19T01:36:23;14.43;;;12.00;;
58954;SDS011;45815;52.334;5.024;2022-08-19T01:38:50;17.27;;;13.00;;
58954;SDS011;45815;52.334;5.024;2022-08-19T01:41:17;18.88;;;12.80;;
58954;SDS011;45815;52.334;5.024;2022-08-19T01:43:43;20.08;;;12.70;;
58954;SDS011;45815;52.334;5.024;2022-08-19T01:46:08;15.90;;;12.27;;
58954;SDS011;45815;52.334;5.024;2022-08-19T01:48:36;18.35;;;14.35;;
58954;SDS011;45815;52.334;5.024;2022-08-19T01:51:04;21.02;;;14.52;;
58954;SDS011;45815;52.334;5.024;2022-08-19T01:53:30;19.70;;;14.15;;
58954;SDS011;45815;52.334;5.024;2022-08-19T01:55:56;19.85;;;13.93;;
58954;SDS011;45815;52.334;5.024;2022-08-19T01:58:22;17.60;;;13.23;;
58954;SDS011;45815;52.334;5.024;2022-08-19T02:00:51;21.15;;;14.57;;
58954;SDS011;45815;52.334;5.024;2022-08-19T02:03:16;19.58;;;14.55;;
58954;SDS011;45815;52.334;5.024;2022-08-19T02:05:42;21.02;;;13.68;;
58954;SDS011;45815;52.334;5.024;2022-08-19T02:08:08;20.60;;;15.45;;
58954;SDS011;45815;52.334;5.024;2022-08-19T02:10:38;18.70;;;14.68;;
58954;SDS011;45815;52.334;5.024;2022-08-19T02:13:07;20.67;;;13.88;;
58954;SDS011;45815;52.334;5.024;2022-08-19T02:15:33;21.42;;;14.88;;
58954;SDS011;45815;52.334;5.024;2022-08-19T02:17:58;19.48;;;14.23;;
58954;SDS011;45815;52.334;5.024;2022-08-19T02:20:24;21.27;;;16.00;;
58954;SDS011;45815;52.334;5.024;2022-08-19T02:22:49;21.75;;;15.40;;
58954;SDS011;45815;52.334;5.024;2022-08-19T02:25:15;23.33;;;16.02;;
58954;SDS011;45815;52.334;5.024;2022-08-19T02:27:41;24.02;;;17.40;;
58954;SDS011;45815;52.334;5.024;2022-08-19T02:30:09;23.50;;;16.13;;
58954;SDS011;45815;52.334;5.024;2022-08-19T02:32:37;25.42;;;16.85;;
58954;SDS011;45815;52.334;5.024;2022-08-19T02:35:04;23.90;;;16.40;;
58954;SDS011;45815;52.334;5.024;2022-08-19T02:37:30;27.08;;;17.08;;
58954;SDS011;45815;52.334;5.024;2022-08-19T02:40:14;22.92;;;16.10;;
58954;SDS011;45815;52.334;5.024;2022-08-19T02:42:40;24.00;;;15.27;;
58954;SDS011;45815;52.334;5.024;2022-08-19T02:45:06;23.00;;;15.20;;
58954;SDS011;45815;52.334;5.024;2022-08-19T02:47:32;23.92;;;15.40;;
58954;SDS011;45815;52.334;5.024;2022-08-19T02:50:00;21.77;;;16.33;;
58954;SDS011;45815;52.334;5.024;2022-08-19T02:52:26;23.38;;;15.27;;
58954;SDS011;45815;52.334;5.024;2022-08-19T02:54:53;25.52;;;16.27;;
58954;SDS011;45815;52.334;5.024;2022-08-19T02:57:18;24.90;;;17.30;;
58954;SDS011;45815;52.334;5.024;2022-08-19T02:59:44;24.90;;;17.00;;
58954;SDS011;45815;52.334;5.024;2022-08-19T03:02:09;29.75;;;17.65;;
58954;SDS011;45815;52.334;5.024;2022-08-19T03:04:34;19.65;;;13.38;;
58954;SDS011;45815;52.334;5.024;2022-08-19T03:07:00;17.17;;;12.95;;
58954;SDS011;45815;52.334;5.024;2022-08-19T03:09:25;18.30;;;11.98;;
58954;SDS011;45815;52.334;5.024;2022-08-19T03:11:50;19.30;;;12.18;;
58954;SDS011;45815;52.334;5.024;2022-08-19T03:14:16;18.20;;;12.13;;
58954;SDS011;45815;52.334;5.024;2022-08-19T03:16:50;21.15;;;12.82;;
58954;SDS011;45815;52.334;5.024;2022-08-19T03:19:17;22.95;;;14.20;;
58954;SDS011;45815;52.334;5.024;2022-08-19T03:21:44;22.55;;;14.75;;
58954;SDS011;45815;52.334;5.024;2022-08-19T03:24:11;25.95;;;15.15;;
58954;SDS011;45815;52.334;5.024;2022-08-19T03:26:39;20.52;;;14.32;;
58954;SDS011;45815;52.334;5.024;2022-08-19T03:29:07;24.70;;;16.23;;
58954;SDS011;45815;52.334;5.024;2022-08-19T03:31:33;24.38;;;16.25;;
58954;SDS011;45815;52.334;5.024;2022-08-19T03:33:59;23.02;;;16.02;;
58954;SDS011;45815;52.334;5.024;2022-08-19T03:36:25;22.17;;;16.33;;
58954;SDS011;45815;52.334;5.024;2022-08-19T03:38:53;26.63;;;16.88;;
58954;SDS011;45815;52.334;5.024;2022-08-19T03:41:23;27.33;;;16.52;;
58954;SDS011;45815;52.334;5.024;2022-08-19T03:43:50;23.55;;;17.10;;
58954;SDS011;45815;52.334;5.024;2022-08-19T03:46:19;26.95;;;16.65;;
58954;SDS011;45815;52.334;5.024;2022-08-19T03:48:47;24.40;;;15.77;;
58954;SDS011;45815;52.334;5.024;2022-08-19T03:51:23;27.67;;;17.35;;
58954;SDS011;45815;52.334;5.024;2022-08-19T03:53:52;27.30;;;16.15;;
58954;SDS011;45815;52.334;5.024;2022-08-19T03:56:19;26.65;;;15.52;;
58954;SDS011;45815;52.334;5.024;2022-08-19T03:58:46;23.50;;;15.68;;
58954;SDS011;45815;52.334;5.024;2022-08-19T04:01:13;28.90;;;16.95;;
58954;SDS011;45815;52.334;5.024;2022-08-19T04:03:41;25.70;;;16.80;;
58954;SDS011;45815;52.334;5.024;2022-08-19T04:06:39;25.92;;;16.45;;
58954;SDS011;45815;52.334;5.024;2022-08-19T04:09:00;25.02;;;16.00;;
58954;SDS011;45815;52.334;5.024;2022-08-19T04:11:29;26.73;;;16.58;;
58954;SDS011;45815;52.334;5.024;2022-08-19T04:13:58;24.02;;;16.52;;
58954;SDS011;45815;52.334;5.024;2022-08-19T04:16:25;29.17;;;18.17;;
58954;SDS011;45815;52.334;5.024;2022-08-19T04:18:59;27.65;;;18.25;;
58954;SDS011;45815;52.334;5.024;2022-08-19T04:21:26;26.77;;;17.88;;
58954;SDS011;45815;52.334;5.024;2022-08-19T04:23:53;27.63;;;17.80;;
58954;SDS011;45815;52.334;5.024;2022-08-19T04:26:20;20.40;;;14.85;;
58954;SDS011;45815;52.334;5.024;2022-08-19T04:28:47;27.63;;;15.52;;
58954;SDS011;45815;52.334;5.024;2022-08-19T04:31:15;21.42;;;14.52;;
58954;SDS011;45815;52.334;5.024;2022-08-19T04:33:42;20.75;;;14.60;;
58954;SDS011;45815;52.334;5.024;2022-08-19T04:36:10;23.90;;;14.35;;
58954;SDS011;45815;52.334;5.024;2022-08-19T04:38:42;23.67;;;14.68;;
58954;SDS011;45815;52.334;5.024;2022-08-19T04:41:07;22.80;;;15.80;;
58954;SDS011;45815;52.334;5.024;2022-08-19T04:43:51;28.42;;;17.50;;
58954;SDS011;45815;52.334;5.024;2022-08-19T04:46:16;27.27;;;18.65;;
58954;SDS011;45815;52.334;5.024;2022-08-19T04:48:42;30.77;;;19.05;;
58954;SDS011;45815;52.334;5.024;2022-08-19T04:51:09;29.05;;;18.67;;
58954;SDS011;45815;52.334;5.024;2022-08-19T04:53:38;27.42;;;17.63;;
58954;SDS011;45815;52.334;5.024;2022-08-19T04:56:10;28.88;;;20.02;;
58954;SDS011;45815;52.334;5.024;2022-08-19T04:58:37;78.95;;;55.17;;
58954;SDS011;45815;52.334;5.024;2022-08-19T05:01:03;38.97;;;25.75;;
58954;SDS011;45815;52.334;5.024;2022-08-19T05:03:29;81.60;;;48.83;;
58954;SDS011;45815;52.334;5.024;2022-08-19T05:05:58;37.03;;;22.90;;
58954;SDS011;45815;52.334;5.024;2022-08-19T05:08:28;37.53;;;23.42;;
58954;SDS011;45815;52.334;5.024;2022-08-19T05:10:55;266.38;;;126.43;;
58954;SDS011;45815;52.334;5.024;2022-08-19T05:13:22;234.55;;;199.00;;
58954;SDS011;45815;52.334;5.024;2022-08-19T05:15:55;45.15;;;27.75;;
58954;SDS011;45815;52.334;5.024;2022-08-19T05:18:21;36.28;;;23.27;;
58954;SDS011;45815;52.334;5.024;2022-08-19T05:21:09;35.38;;;23.80;;
58954;SDS011;45815;52.334;5.024;2022-08-19T05:23:55;39.50;;;23.42;;
58954;SDS011;45815;52.334;5.024;2022-08-19T05:26:22;179.85;;;117.25;;
58954;SDS011;45815;52.334;5.024;2022-08-19T05:28:47;48.08;;;29.45;;
58954;SDS011;45815;52.334;5.024;2022-08-19T05:31:13;51.55;;;30.83;;
58954;SDS011;45815;52.334;5.024;2022-08-19T05:33:39;39.45;;;24.42;;
58954;SDS011;45815;52.334;5.024;2022-08-19T05:36:05;39.00;;;24.83;;
58954;SDS011;45815;52.334;5.024;2022-08-19T05:38:32;125.57;;;111.32;;
58954;SDS011;45815;52.334;5.024;2022-08-19T05:40:58;307.83;;;231.35;;
58954;SDS011;45815;52.334;5.024;2022-08-19T05:43:24;84.63;;;52.30;;
58954;SDS011;45815;52.334;5.024;2022-08-19T05:45:50;42.78;;;26.27;;
58954;SDS011;45815;52.334;5.024;2022-08-19T05:48:16;41.50;;;26.52;;
58954;SDS011;45815;52.334;5.024;2022-08-19T05:50:42;43.70;;;27.27;;
58954;SDS011;45815;52.334;5.024;2022-08-19T05:53:09;43.33;;;26.42;;
58954;SDS011;45815;52.334;5.024;2022-08-19T05:55:35;77.38;;;52.13;;
58954;SDS011;45815;52.334;5.024;2022-08-19T05:58:03;98.18;;;63.28;;
58954;SDS011;45815;52.334;5.024;2022-08-19T06:00:28;41.35;;;27.55;;
58954;SDS011;45815;52.334;5.024;2022-08-19T06:02:56;44.28;;;27.27;;
58954;SDS011;45815;52.334;5.024;2022-08-19T06:05:24;43.42;;;28.05;;
58954;SDS011;45815;52.334;5.024;2022-08-19T06:07:49;81.45;;;54.97;;
58954;SDS011;45815;52.334;5.024;2022-08-19T06:10:15;72.97;;;43.75;;
58954;SDS011;45815;52.334;5.024;2022-08-19T06:12:40;55.80;;;30.27;;
58954;SDS011;45815;52.334;5.024;2022-08-19T06:15:10;115.38;;;68.03;;
58954;SDS011;45815;52.334;5.024;2022-08-19T06:17:37;153.07;;;96.10;;
58954;SDS011;45815;52.334;5.024;2022-08-19T06:20:04;49.63;;;28.73;;
58954;SDS011;45815;52.334;5.024;2022-08-19T06:22:31;55.30;;;29.67;;
58954;SDS011;45815;52.334;5.024;2022-08-19T06:24:56;53.90;;;29.77;;
58954;SDS011;45815;52.334;5.024;2022-08-19T06:27:22;66.78;;;32.80;;
58954;SDS011;45815;52.334;5.024;2022-08-19T06:29:48;64.45;;;35.05;;
58954;SDS011;45815;52.334;5.024;2022-08-19T06:32:14;71.43;;;35.80;;
58954;SDS011;45815;52.334;5.024;2022-08-19T06:34:41;71.25;;;35.10;;
58954;SDS011;45815;52.334;5.024;2022-08-19T06:37:07;95.22;;;50.78;;
58954;SDS011;45815;52.334;5.024;2022-08-19T06:39:35;84.05;;;37.97;;
58954;SDS011;45815;52.334;5.024;2022-08-19T06:42:03;87.38;;;40.17;;
58954;SDS011;45815;52.334;5.024;2022-08-19T06:44:33;83.75;;;38.08;;
58954;SDS011;45815;52.334;5.024;2022-08-19T06:47:01;83.68;;;36.25;;
58954;SDS011;45815;52.334;5.024;2022-08-19T06:49:29;72.90;;;34.25;;
58954;SDS011;45815;52.334;5.024;2022-08-19T06:51:56;80.97;;;34.95;;
58954;SDS011;45815;52.334;5.024;2022-08-19T06:54:22;70.90;;;33.95;;
58954;SDS011;45815;52.334;5.024;2022-08-19T06:56:48;76.95;;;34.80;;
58954;SDS011;45815;52.334;5.024;2022-08-19T06:59:14;79.22;;;35.28;;
58954;SDS011;45815;52.334;5.024;2022-08-19T07:01:49;72.15;;;33.95;;
58954;SDS011;45815;52.334;5.024;2022-08-19T07:04:17;64.38;;;33.08;;
58954;SDS011;45815;52.334;5.024;2022-08-19T07:06:47;69.63;;;34.95;;
58954;SDS011;45815;52.334;5.024;2022-08-19T07:09:15;70.03;;;36.28;;
58954;SDS011;45815;52.334;5.024;2022-08-19T07:11:46;74.22;;;35.17;;
58954;SDS011;45815;52.334;5.024;2022-08-19T07:14:13;72.15;;;34.58;;
58954;SDS011;45815;52.334;5.024;2022-08-19T07:16:39;73.90;;;35.33;;
58954;SDS011;45815;52.334;5.024;2022-08-19T07:19:04;73.45;;;35.53;;
58954;SDS011;45815;52.334;5.024;2022-08-19T07:21:30;68.57;;;34.90;;
58954;SDS011;45815;52.334;5.024;2022-08-19T07:23:56;66.80;;;33.65;;
58954;SDS011;45815;52.334;5.024;2022-08-19T07:26:25;62.20;;;33.63;;
58954;SDS011;45815;52.334;5.024;2022-08-19T07:28:53;72.90;;;35.40;;
58954;SDS011;45815;52.334;5.024;2022-08-19T07:31:20;102.72;;;60.05;;
58954;SDS011;45815;52.334;5.024;2022-08-19T07:33:48;57.35;;;32.67;;
58954;SDS011;45815;52.334;5.024;2022-08-19T07:36:16;72.35;;;34.75;;
58954;SDS011;45815;52.334;5.024;2022-08-19T07:38:44;61.78;;;32.80;;
58954;SDS011;45815;52.334;5.024;2022-08-19T07:41:14;66.35;;;32.83;;
58954;SDS011;45815;52.334;5.024;2022-08-19T07:43:42;66.13;;;32.97;;
58954;SDS011;45815;52.334;5.024;2022-08-19T07:46:09;56.42;;;30.50;;
58954;SDS011;45815;52.334;5.024;2022-08-19T07:48:34;60.25;;;32.70;;
58954;SDS011;45815;52.334;5.024;2022-08-19T07:51:01;52.13;;;29.27;;
58954;SDS011;45815;52.334;5.024;2022-08-19T07:53:30;54.72;;;31.77;;
58954;SDS011;45815;52.334;5.024;2022-08-19T07:55:58;56.50;;;30.80;;
58954;SDS011;45815;52.334;5.024;2022-08-19T07:58:29;54.88;;;29.80;;
58954;SDS011;45815;52.334;5.024;2022-08-19T08:00:57;50.80;;;28.80;;
58954;SDS011;45815;52.334;5.024;2022-08-19T08:03:22;52.05;;;29.90;;
58954;SDS011;45815;52.334;5.024;2022-08-19T08:06:08;48.63;;;28.23;;
58954;SDS011;45815;52.334;5.024;2022-08-19T08:08:52;54.90;;;29.30;;
58954;SDS011;45815;52.334;5.024;2022-08-19T08:11:52;47.97;;;27.65;;
58954;SDS011;45815;52.334;5.024;2022-08-19T08:14:21;48.20;;;27.00;;
58954;SDS011;45815;52.334;5.024;2022-08-19T08:16:52;45.90;;;25.65;;
58954;SDS011;45815;52.334;5.024;2022-08-19T08:19:18;46.08;;;27.05;;
58954;SDS011;45815;52.334;5.024;2022-08-19T08:21:46;39.00;;;25.10;;
58954;SDS011;45815;52.334;5.024;2022-08-19T08:24:11;39.33;;;23.85;;
58954;SDS011;45815;52.334;5.024;2022-08-19T08:26:37;46.20;;;24.88;;
58954;SDS011;45815;52.334;5.024;2022-08-19T08:29:02;42.40;;;26.15;;
58954;SDS011;45815;52.334;5.024;2022-08-19T08:31:28;39.35;;;25.33;;
58954;SDS011;45815;52.334;5.024;2022-08-19T08:33:54;44.60;;;25.98;;
58954;SDS011;45815;52.334;5.024;2022-08-19T08:36:19;43.45;;;25.55;;
58954;SDS011;45815;52.334;5.024;2022-08-19T08:38:45;38.80;;;23.63;;
58954;SDS011;45815;52.334;5.024;2022-08-19T08:44:23;41.13;;;25.20;;
58954;SDS011;45815;52.334;5.024;2022-08-19T08:46:58;39.78;;;23.20;;
58954;SDS011;45815;52.334;5.024;2022-08-19T08:52:13;34.03;;;22.08;;
58954;SDS011;45815;52.334;5.024;2022-08-19T08:54:44;36.25;;;20.98;;
58954;SDS011;45815;52.334;5.024;2022-08-19T08:57:14;29.92;;;20.98;;
58954;SDS011;45815;52.334;5.024;2022-08-19T08:59:45;31.05;;;20.58;;
58954;SDS011;45815;52.334;5.024;2022-08-19T09:02:16;33.03;;;19.65;;
58954;SDS011;45815;52.334;5.024;2022-08-19T09:04:42;34.15;;;22.02;;
58954;SDS011;45815;52.334;5.024;2022-08-19T09:09:43;30.05;;;19.60;;
58954;SDS011;45815;52.334;5.024;2022-08-19T09:14:57;26.33;;;17.93;;
58954;SDS011;45815;52.334;5.024;2022-08-19T09:17:27;26.98;;;16.20;;
58954;SDS011;45815;52.334;5.024;2022-08-19T09:20:04;25.80;;;15.05;;
58954;SDS011;45815;52.334;5.024;2022-08-19T09:22:47;23.10;;;15.65;;
58954;SDS011;45815;52.334;5.024;2022-08-19T09:25:16;22.77;;;15.90;;
58954;SDS011;45815;52.334;5.024;2022-08-19T09:27:45;28.50;;;16.38;;
58954;SDS011;45815;52.334;5.024;2022-08-19T09:30:15;26.10;;;15.98;;
58954;SDS011;45815;52.334;5.024;2022-08-19T09:32:44;22.73;;;14.20;;
58954;SDS011;45815;52.334;5.024;2022-08-19T09:35:10;23.67;;;15.00;;
58954;SDS011;45815;52.334;5.024;2022-08-19T09:37:37;26.00;;;15.57;;
58954;SDS011;45815;52.334;5.024;2022-08-19T09:40:03;23.95;;;13.70;;
58954;SDS011;45815;52.334;5.024;2022-08-19T09:42:29;23.15;;;13.90;;
58954;SDS011;45815;52.334;5.024;2022-08-19T09:44:54;19.42;;;12.18;;
58954;SDS011;45815;52.334;5.024;2022-08-19T09:47:20;19.13;;;12.85;;
58954;SDS011;45815;52.334;5.024;2022-08-19T09:49:45;24.38;;;13.70;;
58954;SDS011;45815;52.334;5.024;2022-08-19T09:52:15;23.38;;;12.77;;
58954;SDS011;45815;52.334;5.024;2022-08-19T09:54:41;21.27;;;13.55;;
58954;SDS011;45815;52.334;5.024;2022-08-19T09:57:07;17.77;;;11.38;;
58954;SDS011;45815;52.334;5.024;2022-08-19T09:59:33;17.67;;;10.52;;
58954;SDS011;45815;52.334;5.024;2022-08-19T10:01:58;16.85;;;9.82;;
58954;SDS011;45815;52.334;5.024;2022-08-19T10:04:24;13.48;;;8.77;;
58954;SDS011;45815;52.334;5.024;2022-08-19T10:07:10;15.23;;;9.18;;
58954;SDS011;45815;52.334;5.024;2022-08-19T10:09:36;13.50;;;7.63;;
58954;SDS011;45815;52.334;5.024;2022-08-19T10:12:02;17.15;;;8.18;;
58954;SDS011;45815;52.334;5.024;2022-08-19T10:14:29;14.65;;;7.50;;
58954;SDS011;45815;52.334;5.024;2022-08-19T10:16:55;10.95;;;7.55;;
58954;SDS011;45815;52.334;5.024;2022-08-19T10:19:21;13.50;;;7.45;;
58954;SDS011;45815;52.334;5.024;2022-08-19T10:21:47;14.13;;;7.88;;
58954;SDS011;45815;52.334;5.024;2022-08-19T10:24:12;15.52;;;7.80;;
58954;SDS011;45815;52.334;5.024;2022-08-19T10:26:38;14.60;;;8.65;;
58954;SDS011;45815;52.334;5.024;2022-08-19T10:29:07;14.50;;;7.43;;
58954;SDS011;45815;52.334;5.024;2022-08-19T10:31:33;13.07;;;6.75;;
58954;SDS011;45815;52.334;5.024;2022-08-19T10:33:59;13.95;;;7.72;;
58954;SDS011;45815;52.334;5.024;2022-08-19T10:36:27;14.13;;;7.90;;
58954;SDS011;45815;52.334;5.024;2022-08-19T10:38:59;12.93;;;7.30;;
58954;SDS011;45815;52.334;5.024;2022-08-19T10:41:31;14.40;;;8.60;;
58954;SDS011;45815;52.334;5.024;2022-08-19T10:43:59;17.10;;;8.57;;
58954;SDS011;45815;52.334;5.024;2022-08-19T10:46:27;15.18;;;8.25;;
58954;SDS011;45815;52.334;5.024;2022-08-19T10:48:57;15.68;;;7.85;;
58954;SDS011;45815;52.334;5.024;2022-08-19T10:51:23;13.88;;;7.88;;
58954;SDS011;45815;52.334;5.024;2022-08-19T10:54:07;16.15;;;8.05;;
58954;SDS011;45815;52.334;5.024;2022-08-19T10:56:33;18.50;;;7.90;;
58954;SDS011;45815;52.334;5.024;2022-08-19T10:59:24;12.18;;;6.97;;
58954;SDS011;45815;52.334;5.024;2022-08-19T11:01:53;14.10;;;6.88;;
58954;SDS011;45815;52.334;5.024;2022-08-19T11:04:23;11.23;;;6.25;;
58954;SDS011;45815;52.334;5.024;2022-08-19T11:06:48;12.00;;;6.65;;
58954;SDS011;45815;52.334;5.024;2022-08-19T11:09:16;11.60;;;5.85;;
58954;SDS011;45815;52.334;5.024;2022-08-19T11:11:43;11.50;;;6.13;;
58954;SDS011;45815;52.334;5.024;2022-08-19T11:14:09;11.15;;;6.25;;
58954;SDS011;45815;52.334;5.024;2022-08-19T11:16:37;11.05;;;6.20;;
58954;SDS011;45815;52.334;5.024;2022-08-19T11:19:04;12.82;;;5.65;;
58954;SDS011;45815;52.334;5.024;2022-08-19T11:21:34;10.60;;;5.82;;
58954;SDS011;45815;52.334;5.024;2022-08-19T11:24:07;12.80;;;6.20;;
58954;SDS011;45815;52.334;5.024;2022-08-19T11:26:38;11.48;;;5.70;;
58954;SDS011;45815;52.334;5.024;2022-08-19T11:29:05;10.93;;;5.30;;
58954;SDS011;45815;52.334;5.024;2022-08-19T11:31:36;11.13;;;4.88;;
58954;SDS011;45815;52.334;5.024;2022-08-19T11:34:04;10.77;;;4.90;;
58954;SDS011;45815;52.334;5.024;2022-08-19T11:36:32;12.05;;;4.68;;
58954;SDS011;45815;52.334;5.024;2022-08-19T11:38:58;19.77;;;12.70;;
58954;SDS011;45815;52.334;5.024;2022-08-19T11:41:25;13.15;;;5.93;;
58954;SDS011;45815;52.334;5.024;2022-08-19T11:43:51;11.43;;;5.25;;
58954;SDS011;45815;52.334;5.024;2022-08-19T11:46:19;11.95;;;4.25;;
58954;SDS011;45815;52.334;5.024;2022-08-19T11:48:45;9.95;;;4.78;;
58954;SDS011;45815;52.334;5.024;2022-08-19T11:51:14;9.90;;;4.63;;
58954;SDS011;45815;52.334;5.024;2022-08-19T11:53:43;9.40;;;4.75;;
58954;SDS011;45815;52.334;5.024;2022-08-19T11:56:09;10.98;;;4.00;;
58954;SDS011;45815;52.334;5.024;2022-08-19T11:58:35;8.52;;;3.85;;
58954;SDS011;45815;52.334;5.024;2022-08-19T12:01:01;9.13;;;4.30;;
58954;SDS011;45815;52.334;5.024;2022-08-19T12:03:26;8.25;;;4.05;;
58954;SDS011;45815;52.334;5.024;2022-08-19T12:05:53;9.88;;;4.18;;
58954;SDS011;45815;52.334;5.024;2022-08-19T12:08:18;8.82;;;4.38;;
58954;SDS011;45815;52.334;5.024;2022-08-19T12:10:44;10.93;;;4.30;;
58954;SDS011;45815;52.334;5.024;2022-08-19T12:13:11;9.75;;;4.32;;
58954;SDS011;45815;52.334;5.024;2022-08-19T12:15:43;7.75;;;4.05;;
58954;SDS011;45815;52.334;5.024;2022-08-19T12:18:10;9.20;;;3.80;;
58954;SDS011;45815;52.334;5.024;2022-08-19T12:20:39;7.20;;;3.97;;
58954;SDS011;45815;52.334;5.024;2022-08-19T12:23:06;8.13;;;3.83;;
58954;SDS011;45815;52.334;5.024;2022-08-19T12:25:34;7.80;;;4.40;;
58954;SDS011;45815;52.334;5.024;2022-08-19T12:28:01;9.77;;;3.88;;
58954;SDS011;45815;52.334;5.024;2022-08-19T12:30:27;8.00;;;3.47;;
58954;SDS011;45815;52.334;5.024;2022-08-19T12:32:53;11.38;;;3.90;;
58954;SDS011;45815;52.334;5.024;2022-08-19T12:35:18;9.13;;;3.72;;
58954;SDS011;45815;52.334;5.024;2022-08-19T12:37:47;9.27;;;3.80;;
58954;SDS011;45815;52.334;5.024;2022-08-19T12:40:14;9.98;;;3.95;;
58954;SDS011;45815;52.334;5.024;2022-08-19T12:42:41;9.10;;;5.18;;
58954;SDS011;45815;52.334;5.024;2022-08-19T12:45:07;12.05;;;6.00;;
58954;SDS011;45815;52.334;5.024;2022-08-19T12:47:35;7.82;;;4.53;;
58954;SDS011;45815;52.334;5.024;2022-08-19T12:50:01;7.30;;;3.83;;
58954;SDS011;45815;52.334;5.024;2022-08-19T12:52:26;5.85;;;2.67;;
58954;SDS011;45815;52.334;5.024;2022-08-19T12:54:53;6.45;;;2.38;;
58954;SDS011;45815;52.334;5.024;2022-08-19T12:57:21;4.72;;;2.15;;
58954;SDS011;45815;52.334;5.024;2022-08-19T12:59:51;7.38;;;2.40;;
58954;SDS011;45815;52.334;5.024;2022-08-19T13:02:18;5.77;;;2.10;;
58954;SDS011;45815;52.334;5.024;2022-08-19T13:04:45;7.30;;;2.55;;
58954;SDS011;45815;52.334;5.024;2022-08-19T13:07:10;6.22;;;2.65;;
58954;SDS011;45815;52.334;5.024;2022-08-19T13:09:36;7.28;;;2.97;;
58954;SDS011;45815;52.334;5.024;2022-08-19T13:12:02;6.07;;;2.33;;
58954;SDS011;45815;52.334;5.024;2022-08-19T13:14:32;6.43;;;2.20;;
58954;SDS011;45815;52.334;5.024;2022-08-19T13:16:58;6.72;;;2.65;;
58954;SDS011;45815;52.334;5.024;2022-08-19T13:19:24;7.10;;;2.65;;
58954;SDS011;45815;52.334;5.024;2022-08-19T13:21:50;4.78;;;2.22;;
58954;SDS011;45815;52.334;5.024;2022-08-19T13:24:16;5.00;;;2.08;;
58954;SDS011;45815;52.334;5.024;2022-08-19T13:26:41;6.25;;;2.00;;
58954;SDS011;45815;52.334;5.024;2022-08-19T13:29:07;6.53;;;2.00;;
58954;SDS011;45815;52.334;5.024;2022-08-19T13:31:50;5.97;;;1.80;;
58954;SDS011;45815;52.334;5.024;2022-08-19T13:34:45;4.97;;;1.70;;
58954;SDS011;45815;52.334;5.024;2022-08-19T13:37:11;6.00;;;1.75;;
58954;SDS011;45815;52.334;5.024;2022-08-19T13:39:37;5.38;;;1.77;;
58954;SDS011;45815;52.334;5.024;2022-08-19T13:42:02;6.07;;;1.92;;
58954;SDS011;45815;52.334;5.024;2022-08-19T13:44:29;5.90;;;2.10;;
58954;SDS011;45815;52.334;5.024;2022-08-19T13:46:55;5.30;;;1.60;;
58954;SDS011;45815;52.334;5.024;2022-08-19T13:51:55;4.25;;;1.63;;
58954;SDS011;45815;52.334;5.024;2022-08-19T13:54:20;4.97;;;1.52;;
58954;SDS011;45815;52.334;5.024;2022-08-19T13:56:45;4.00;;;1.65;;
58954;SDS011;45815;52.334;5.024;2022-08-19T13:59:11;5.30;;;1.85;;
58954;SDS011;45815;52.334;5.024;2022-08-19T14:01:37;4.60;;;1.50;;
58954;SDS011;45815;52.334;5.024;2022-08-19T14:04:03;4.75;;;1.65;;
58954;SDS011;45815;52.334;5.024;2022-08-19T14:06:29;4.40;;;1.95;;
58954;SDS011;45815;52.334;5.024;2022-08-19T14:08:54;5.07;;;1.83;;
58954;SDS011;45815;52.334;5.024;2022-08-19T14:11:20;4.35;;;1.90;;
58954;SDS011;45815;52.334;5.024;2022-08-19T14:13:48;6.60;;;2.05;;
58954;SDS011;45815;52.334;5.024;2022-08-19T14:16:13;3.95;;;1.88;;
58954;SDS011;45815;52.334;5.024;2022-08-19T14:18:39;4.80;;;1.80;;
58954;SDS011;45815;52.334;5.024;2022-08-19T14:21:05;6.20;;;1.95;;
58954;SDS011;45815;52.334;5.024;2022-08-19T14:23:31;6.43;;;2.17;;
58954;SDS011;45815;52.334;5.024;2022-08-19T14:26:04;5.32;;;2.03;;
58954;SDS011;45815;52.334;5.024;2022-08-19T14:28:34;5.88;;;1.90;;
58954;SDS011;45815;52.334;5.024;2022-08-19T14:30:59;5.18;;;2.40;;
58954;SDS011;45815;52.334;5.024;2022-08-19T14:33:24;4.78;;;1.77;;
58954;SDS011;45815;52.334;5.024;2022-08-19T14:35:50;4.45;;;1.55;;
58954;SDS011;45815;52.334;5.024;2022-08-19T14:38:16;5.03;;;1.90;;
58954;SDS011;45815;52.334;5.024;2022-08-19T14:40:43;4.60;;;1.98;;
58954;SDS011;45815;52.334;5.024;2022-08-19T14:43:09;7.40;;;1.83;;
58954;SDS011;45815;52.334;5.024;2022-08-19T14:45:35;5.90;;;2.63;;
58954;SDS011;45815;52.334;5.024;2022-08-19T14:48:03;5.20;;;2.00;;